Time;durP1;ratioP1;P1;durP2;ratioP2;P2;SDS_P1;SDS_P2;PMS_P1;PMS_P2;Temp;Humidity;BMP_temperature;BMP_pressure;BME280_temperature;BME280_humidity;BME280_pressure;Samples;Min_cycle;Max_cycle;Signal;HPM_P1;HPM_P2
2022/08/15 00:01:10;;;;;;;9.70;8.70;;;22.80;99.90;;;;;;5037923;28;20136;-82
2022/08/15 00:03:40;;;;;;;9.63;8.65;;;22.70;99.90;;;;;;5034845;28;20042;-82
2022/08/15 00:06:10;;;;;;;9.48;8.57;;;22.70;99.90;;;;;;5034134;28;20053;-82
2022/08/15 00:08:39;;;;;;;9.18;8.27;;;22.70;99.90;;;;;;5038662;28;20056;-81
2022/08/15 00:11:11;;;;;;;10.20;8.57;;;22.70;99.90;;;;;;5042822;28;20068;-81
2022/08/15 00:13:39;;;;;;;9.77;8.88;;;22.70;99.90;;;;;;5042238;28;20047;-82
2022/08/15 00:16:06;;;;;;;10.63;9.63;;;22.70;99.90;;;;;;5039375;28;20130;-82
2022/08/15 00:18:33;;;;;;;10.88;8.85;;;22.60;99.90;;;;;;5031519;28;20045;-82
2022/08/15 00:20:59;;;;;;;9.25;8.35;;;22.60;99.90;;;;;;5040213;28;20041;-81
2022/08/15 00:23:26;;;;;;;10.63;9.48;;;22.50;99.90;;;;;;5036269;28;20104;-81
2022/08/15 00:25:55;;;;;;;11.13;9.50;;;22.40;99.90;;;;;;5040497;28;20057;-81
2022/08/15 00:28:21;;;;;;;13.75;9.65;;;22.30;99.90;;;;;;5031132;28;20561;-81
2022/08/15 00:30:47;;;;;;;9.85;8.88;;;22.30;99.90;;;;;;5041197;28;20666;-81
2022/08/15 00:33:14;;;;;;;11.63;9.70;;;22.30;99.90;;;;;;5035547;28;20056;-82
2022/08/15 00:35:46;;;;;;;11.98;9.23;;;22.30;99.90;;;;;;5035617;28;20061;-81
2022/08/15 00:38:18;;;;;;;9.93;8.93;;;22.40;99.90;;;;;;5038449;28;20045;-83
2022/08/15 00:43:34;;;;;;;10.82;9.73;;;22.30;99.90;;;;;;5042555;28;20554;-80
2022/08/15 00:46:02;;;;;;;11.68;9.05;;;22.30;99.90;;;;;;5037046;28;20049;-83
2022/08/15 00:48:43;;;;;;;11.63;9.65;;;22.40;99.90;;;;;;5039030;28;20033;-81
2022/08/15 00:51:22;;;;;;;12.48;10.43;;;22.40;99.90;;;;;;5037473;28;20041;-82
2022/08/15 00:54:15;;;;;;;12.02;10.45;;;22.40;99.90;;;;;;5041373;28;20052;-81
2022/08/15 00:56:49;;;;;;;10.82;9.73;;;22.40;99.90;;;;;;5041209;28;20032;-81
2022/08/15 00:59:19;;;;;;;11.25;10.07;;;22.30;99.90;;;;;;5037929;28;20037;-82
2022/08/15 01:01:45;;;;;;;11.45;10.00;;;22.30;99.90;;;;;;5044236;28;20071;-81
2022/08/15 01:04:13;;;;;;;11.25;10.02;;;22.30;99.90;;;;;;5038339;28;20151;-82
2022/08/15 01:06:40;;;;;;;10.98;9.98;;;22.30;99.90;;;;;;5060159;28;20037;-82
2022/08/15 01:09:07;;;;;;;13.35;10.65;;;22.20;99.90;;;;;;5041124;28;20507;-82
2022/08/15 01:11:40;;;;;;;10.90;9.80;;;22.20;99.90;;;;;;5039912;28;20040;-81
2022/08/15 01:14:08;;;;;;;12.55;10.75;;;22.10;99.90;;;;;;5058527;28;20041;-81
2022/08/15 01:16:38;;;;;;;11.70;10.50;;;22.10;99.90;;;;;;5038267;28;20533;-81
2022/08/15 01:19:22;;;;;;;11.25;10.07;;;22.10;99.90;;;;;;5037133;28;20359;-82
2022/08/15 01:22:13;;;;;;;11.60;10.35;;;22.10;99.90;;;;;;5043571;28;20086;-82
2022/08/15 01:25:09;;;;;;;11.32;9.30;;;22.10;99.90;;;;;;5034923;28;20045;-80
2022/08/15 01:27:44;;;;;;;10.98;9.77;;;22.10;99.90;;;;;;5039507;28;20067;-81
2022/08/15 01:30:15;;;;;;;11.57;10.30;;;22.10;99.90;;;;;;5038148;28;20050;-82
2022/08/15 01:32:42;;;;;;;11.10;9.75;;;22.10;99.90;;;;;;5044434;28;20079;-81
2022/08/15 01:35:08;;;;;;;11.13;10.02;;;22.10;99.90;;;;;;5018041;28;20033;-81
2022/08/15 01:37:35;;;;;;;13.15;10.45;;;22.10;99.90;;;;;;5038199;28;20112;-81
2022/08/15 01:40:07;;;;;;;11.35;10.25;;;22.20;99.90;;;;;;5016801;28;20048;-81
2022/08/15 01:42:41;;;;;;;12.15;10.77;;;22.20;99.90;;;;;;5033487;28;20700;-80
2022/08/15 01:45:20;;;;;;;11.60;10.38;;;22.10;99.90;;;;;;5034581;28;20927;-81
2022/08/15 01:47:59;;;;;;;11.43;10.23;;;22.20;99.90;;;;;;5039901;28;20045;-81
2022/08/15 01:50:32;;;;;;;13.25;10.30;;;22.10;99.90;;;;;;5042489;28;20051;-80
2022/08/15 01:53:04;;;;;;;12.35;10.77;;;22.10;99.90;;;;;;5036828;28;20045;-81
2022/08/15 01:55:38;;;;;;;12.32;10.75;;;22.10;99.90;;;;;;5038064;28;20037;-80
2022/08/15 01:58:06;;;;;;;12.85;10.48;;;22.10;99.90;;;;;;5039020;28;20160;-81
2022/08/15 02:00:32;;;;;;;11.95;10.73;;;22.10;99.90;;;;;;5060824;28;20491;-80
2022/08/15 02:03:00;;;;;;;12.60;10.52;;;22.20;99.90;;;;;;5036560;28;20064;-81
2022/08/15 02:05:25;;;;;;;13.00;10.38;;;22.20;99.90;;;;;;5038308;28;20058;-81
2022/08/15 02:07:51;;;;;;;12.05;10.80;;;22.10;99.90;;;;;;5042122;28;20041;-82
2022/08/15 02:10:17;;;;;;;10.73;9.63;;;21.90;99.90;;;;;;5037592;28;20049;-80
2022/08/15 02:12:42;;;;;;;13.48;10.30;;;21.70;99.90;;;;;;5032896;28;20056;-82
2022/08/15 02:15:17;;;;;;;12.50;10.27;;;21.80;99.90;;;;;;5046816;28;20041;-81
2022/08/15 02:17:44;;;;;;;11.93;10.25;;;21.80;99.90;;;;;;5032238;28;20048;-81
2022/08/15 02:20:12;;;;;;;10.45;9.35;;;21.90;99.90;;;;;;5051243;28;20045;-81
2022/08/15 02:22:38;;;;;;;11.23;9.95;;;21.90;99.90;;;;;;5037098;28;20041;-81
2022/08/15 02:25:06;;;;;;;11.38;10.18;;;21.90;99.90;;;;;;5033088;28;20037;-81
2022/08/15 02:27:34;;;;;;;11.13;9.95;;;21.90;99.90;;;;;;5039469;28;20082;-81
2022/08/15 02:30:08;;;;;;;12.10;9.90;;;21.80;99.90;;;;;;5027489;28;20083;-81
2022/08/15 02:32:35;;;;;;;12.20;10.27;;;21.80;99.90;;;;;;5030570;28;20077;-81
2022/08/15 02:35:00;;;;;;;13.00;9.68;;;21.70;99.90;;;;;;5032775;28;20515;-81
2022/08/15 02:37:26;;;;;;;12.02;10.27;;;21.60;99.90;;;;;;5033643;28;20076;-81
2022/08/15 02:39:52;;;;;;;10.52;9.38;;;21.60;99.90;;;;;;5033696;28;20798;-80
2022/08/15 02:42:19;;;;;;;11.35;10.25;;;21.60;99.90;;;;;;5031695;28;20045;-81
2022/08/15 02:44:50;;;;;;;12.15;10.48;;;21.70;99.90;;;;;;5032255;28;20534;-80
2022/08/15 02:47:17;;;;;;;13.88;11.55;;;21.70;99.90;;;;;;5023683;28;20090;-80
2022/08/15 02:49:43;;;;;;;13.30;10.82;;;21.80;99.90;;;;;;5049067;28;20499;-81
2022/08/15 02:52:10;;;;;;;14.43;11.43;;;21.70;99.90;;;;;;5032047;28;20052;-81
2022/08/15 02:54:36;;;;;;;13.05;11.10;;;21.70;99.90;;;;;;5031196;28;20128;-80
2022/08/15 02:57:02;;;;;;;12.55;10.70;;;21.60;99.90;;;;;;5064872;28;20081;-81
2022/08/15 02:59:28;;;;;;;12.57;11.27;;;21.70;99.90;;;;;;5031068;28;20052;-81
2022/08/15 03:01:57;;;;;;;13.35;11.38;;;21.70;99.90;;;;;;5034223;28;20053;-81
2022/08/15 03:04:23;;;;;;;12.60;11.10;;;21.60;99.90;;;;;;5047463;28;20056;-81
2022/08/15 03:06:52;;;;;;;12.55;11.25;;;21.60;99.90;;;;;;5044429;28;20098;-80
2022/08/15 03:09:19;;;;;;;14.27;11.43;;;21.70;99.90;;;;;;5041375;28;20037;-80
2022/08/15 03:11:45;;;;;;;12.70;11.40;;;21.70;99.90;;;;;;5042439;28;20407;-80
2022/08/15 03:14:14;;;;;;;15.07;11.98;;;21.70;99.90;;;;;;5063809;28;20049;-81
2022/08/15 03:16:43;;;;;;;13.15;11.45;;;21.70;99.90;;;;;;5043249;28;20041;-80
2022/08/15 03:19:11;;;;;;;13.40;11.43;;;21.70;99.90;;;;;;5029717;28;20044;-80
2022/08/15 03:21:37;;;;;;;13.50;12.00;;;21.80;99.90;;;;;;5063838;28;20049;-81
2022/08/15 03:24:04;;;;;;;14.00;11.65;;;21.70;99.90;;;;;;5030806;28;20033;-80
2022/08/15 03:26:30;;;;;;;15.38;12.57;;;21.70;99.90;;;;;;5064073;28;20072;-80
2022/08/15 03:28:57;;;;;;;13.68;12.23;;;21.80;99.90;;;;;;5044684;28;20122;-80
2022/08/15 03:31:23;;;;;;;15.15;11.98;;;21.80;99.90;;;;;;5049578;28;20033;-79
2022/08/15 03:33:48;;;;;;;16.88;11.93;;;21.80;99.90;;;;;;5030798;28;20114;-80
2022/08/15 03:36:17;;;;;;;13.60;11.68;;;21.70;99.90;;;;;;5042880;28;20049;-80
2022/08/15 03:38:45;;;;;;;17.52;11.48;;;21.70;99.90;;;;;;5039001;28;20041;-82
2022/08/15 03:41:13;;;;;;;13.63;11.52;;;21.60;99.90;;;;;;5040696;28;20380;-81
2022/08/15 03:43:40;;;;;;;12.68;11.35;;;21.50;99.90;;;;;;5057864;28;20120;-80
2022/08/15 03:46:16;;;;;;;12.55;11.20;;;21.40;99.90;;;;;;5035700;28;20558;-80
2022/08/15 03:48:47;;;;;;;13.32;11.43;;;21.30;99.90;;;;;;5038983;28;20033;-80
2022/08/15 03:51:15;;;;;;;13.02;11.75;;;21.30;99.90;;;;;;5040593;28;20033;-80
2022/08/15 03:53:44;;;;;;;13.63;12.02;;;21.30;99.90;;;;;;5038376;28;20056;-81
2022/08/15 03:56:15;;;;;;;13.40;11.80;;;21.30;99.90;;;;;;5057130;28;20056;-81
2022/08/15 03:58:42;;;;;;;14.02;11.38;;;21.20;99.90;;;;;;5037410;28;20033;-80
2022/08/15 04:01:17;;;;;;;14.00;11.60;;;21.10;99.90;;;;;;5033787;28;20164;-80
2022/08/15 04:03:45;;;;;;;12.57;11.23;;;21.10;99.90;;;;;;5036916;28;20036;-80
2022/08/15 04:06:15;;;;;;;14.70;11.40;;;21.00;99.90;;;;;;5037079;28;20076;-80
2022/08/15 04:08:43;;;;;;;13.30;11.90;;;20.90;99.90;;;;;;5038397;28;20117;-82
2022/08/15 04:11:09;;;;;;;13.10;11.80;;;21.00;99.90;;;;;;5035360;28;20073;-80
2022/08/15 04:13:35;;;;;;;13.70;12.13;;;20.90;99.90;;;;;;5042800;28;20056;-80
2022/08/15 04:16:02;;;;;;;15.88;12.10;;;20.90;99.90;;;;;;5040902;28;20044;-80
2022/08/15 04:18:29;;;;;;;12.80;11.40;;;20.90;99.90;;;;;;5041384;28;20079;-81
2022/08/15 04:20:56;;;;;;;16.17;12.52;;;20.80;99.90;;;;;;5036019;28;20045;-80
2022/08/15 04:23:23;;;;;;;13.07;11.65;;;20.70;99.90;;;;;;5043967;28;20128;-80
2022/08/15 04:25:48;;;;;;;14.63;11.30;;;20.70;99.90;;;;;;5036472;28;20049;-81
2022/08/15 04:28:17;;;;;;;11.77;10.60;;;20.60;99.90;;;;;;5056862;28;20099;-80
2022/08/15 04:30:44;;;;;;;15.02;11.35;;;20.60;99.90;;;;;;5032416;28;20412;-80
2022/08/15 04:33:15;;;;;;;13.48;11.90;;;20.60;99.90;;;;;;5039453;28;20399;-80
2022/08/15 04:35:44;;;;;;;15.35;11.40;;;20.70;99.90;;;;;;5035049;28;20095;-80
2022/08/15 04:38:10;;;;;;;13.45;11.75;;;20.60;99.90;;;;;;5036892;28;20043;-79
2022/08/15 04:40:37;;;;;;;15.80;12.15;;;20.60;99.90;;;;;;5044444;28;20069;-80
2022/08/15 04:43:03;;;;;;;15.48;11.75;;;20.60;99.90;;;;;;5039013;28;20045;-80
2022/08/15 04:45:31;;;;;;;14.35;12.27;;;20.60;99.90;;;;;;5058345;28;20527;-80
2022/08/15 04:48:01;;;;;;;13.43;11.77;;;20.70;99.90;;;;;;5041202;28;20052;-79
2022/08/15 04:50:26;;;;;;;16.98;12.85;;;20.70;99.90;;;;;;5039653;28;20060;-80
2022/08/15 04:52:55;;;;;;;17.90;12.98;;;20.70;99.90;;;;;;5040787;28;20049;-80
2022/08/15 04:55:22;;;;;;;17.00;13.32;;;20.70;99.90;;;;;;5039534;28;20045;-80
2022/08/15 04:57:49;;;;;;;15.70;13.20;;;20.70;99.90;;;;;;5044070;28;20040;-82
2022/08/15 05:00:18;;;;;;;15.10;13.35;;;20.70;99.90;;;;;;5041294;28;20507;-79
2022/08/15 05:03:01;;;;;;;14.93;11.90;;;20.80;99.90;;;;;;5038834;28;20057;-82
2022/08/15 05:05:27;;;;;;;15.02;13.43;;;20.90;99.90;;;;;;5040071;28;20045;-80
2022/08/15 05:07:53;;;;;;;15.13;13.23;;;20.90;99.90;;;;;;5038243;28;20522;-80
2022/08/15 05:10:19;;;;;;;15.27;13.77;;;21.00;99.90;;;;;;5037180;28;20067;-80
2022/08/15 05:12:44;;;;;;;14.82;13.27;;;21.00;99.90;;;;;;5040599;28;20045;-80
2022/08/15 05:15:12;;;;;;;17.10;13.52;;;21.10;99.90;;;;;;5018497;28;20044;-80
2022/08/15 05:17:38;;;;;;;15.65;12.45;;;21.20;99.90;;;;;;5043650;28;20403;-79
2022/08/15 05:20:06;;;;;;;14.25;12.85;;;21.30;99.90;;;;;;5029280;28;20042;-79
2022/08/15 05:22:32;;;;;;;14.38;12.60;;;21.40;99.90;;;;;;5030216;28;20041;-80
2022/08/15 05:24:58;;;;;;;15.25;13.65;;;21.40;99.90;;;;;;5032754;28;20048;-80
2022/08/15 05:27:23;;;;;;;15.32;13.77;;;21.40;99.90;;;;;;5034109;28;20037;-80
2022/08/15 05:29:51;;;;;;;17.42;13.93;;;21.50;99.90;;;;;;5015531;28;20046;-79
2022/08/15 05:32:18;;;;;;;15.27;13.68;;;21.50;99.90;;;;;;5033371;28;20053;-80
2022/08/15 05:34:44;;;;;;;15.82;14.23;;;21.50;99.90;;;;;;5049225;28;20099;-80
2022/08/15 05:37:12;;;;;;;15.30;13.52;;;21.50;99.90;;;;;;5026826;28;20044;-79
2022/08/15 05:39:39;;;;;;;14.98;13.48;;;21.50;99.90;;;;;;5050278;28;20095;-80
2022/08/15 05:42:47;;;;;;;15.82;14.15;;;21.60;99.90;;;;;;5034420;28;20117;-80
2022/08/15 05:45:28;;;;;;;17.30;14.20;;;21.60;99.90;;;;;;5036584;28;20418;-79
2022/08/15 05:48:11;;;;;;;16.70;14.30;;;21.60;99.90;;;;;;5038085;28;20040;-80
2022/08/15 05:50:49;;;;;;;15.65;14.13;;;21.70;99.90;;;;;;5024982;28;20112;-80
2022/08/15 05:53:31;;;;;;;15.77;13.93;;;21.70;99.90;;;;;;5039742;28;20049;-80
2022/08/15 05:56:09;;;;;;;15.27;13.82;;;21.80;99.90;;;;;;5042149;28;20044;-80
2022/08/15 05:58:46;;;;;;;19.20;14.05;;;21.90;99.90;;;;;;5038843;28;20044;-80
2022/08/15 06:01:33;;;;;;;15.70;14.20;;;21.90;99.90;;;;;;5037124;28;20037;-81
2022/08/15 06:04:08;;;;;;;15.82;14.15;;;22.00;99.90;;;;;;5057599;28;20030;-80
2022/08/15 06:06:38;;;;;;;15.88;14.18;;;22.00;99.90;;;;;;5038101;28;20041;-80
2022/08/15 06:09:15;;;;;;;16.83;14.30;;;22.10;99.90;;;;;;5036952;28;20073;-79
2022/08/15 06:11:47;;;;;;;15.70;14.10;;;22.20;99.90;;;;;;5042206;28;20040;-79
2022/08/15 06:14:34;;;;;;;15.30;13.68;;;22.30;99.90;;;;;;5037502;28;20144;-81
2022/08/15 06:17:13;;;;;;;15.63;14.02;;;22.30;99.90;;;;;;5041567;28;20389;-79
2022/08/15 06:19:43;;;;;;;15.73;14.07;;;22.40;99.90;;;;;;5036370;28;20497;-79
2022/08/15 06:22:33;;;;;;;17.10;14.25;;;22.40;99.90;;;;;;5034452;28;20114;-79
2022/08/15 06:25:32;;;;;;;14.80;13.40;;;22.60;99.90;;;;;;5036357;28;20396;-81
2022/08/15 06:28:23;;;;;;;15.90;14.00;;;22.80;99.90;;;;;;5055499;28;20053;-79
2022/08/15 06:31:17;;;;;;;16.00;14.35;;;23.00;99.90;;;;;;5055449;28;20037;-79
2022/08/15 06:34:24;;;;;;;18.52;13.60;;;23.10;99.90;;;;;;5029279;28;21002;-80
2022/08/15 06:37:02;;;;;;;14.27;12.82;;;23.30;99.90;;;;;;4990909;28;20749;-79
2022/08/15 06:39:49;;;;;;;13.77;12.38;;;23.40;99.90;;;;;;5031642;28;20587;-79
2022/08/15 06:42:29;;;;;;;14.10;12.70;;;23.40;99.90;;;;;;5036422;28;20051;-79
2022/08/15 06:44:59;;;;;;;14.05;12.65;;;23.40;99.90;;;;;;5023721;28;20664;-82
2022/08/15 06:47:28;;;;;;;13.93;12.52;;;23.40;99.90;;;;;;5040761;28;20438;-79
2022/08/15 06:49:58;;;;;;;12.95;11.70;;;23.60;99.90;;;;;;5058219;28;20029;-80
2022/08/15 06:52:26;;;;;;;15.07;12.35;;;23.70;99.90;;;;;;5037098;28;20044;-79
2022/08/15 06:54:52;;;;;;;13.25;11.93;;;23.80;99.90;;;;;;5036640;28;20120;-81
2022/08/15 06:57:43;;;;;;;13.30;11.88;;;24.10;99.90;;;;;;5055750;28;20339;-80
2022/08/15 07:00:33;;;;;;;13.40;11.30;;;24.20;99.90;;;;;;5038642;28;20405;-80
2022/08/15 07:03:51;;;;;;;11.73;10.52;;;24.20;99.90;;;;;;5060284;28;20045;-80
2022/08/15 07:06:21;;;;;;;12.43;10.70;;;24.40;99.90;;;;;;4951370;28;20100;-80
2022/08/15 07:09:01;;;;;;;12.55;10.57;;;24.40;99.90;;;;;;5026150;28;20534;-80
2022/08/15 07:11:37;;;;;;;12.35;11.15;;;24.50;99.90;;;;;;5037862;28;20041;-79
2022/08/15 07:14:09;;;;;;;12.75;11.55;;;24.70;99.90;;;;;;5033064;28;20052;-81
2022/08/15 07:17:06;;;;;;;11.60;10.40;;;24.70;99.90;;;;;;5035232;28;20510;-80
2022/08/15 07:19:35;;;;;;;12.25;11.05;;;24.80;99.90;;;;;;5032936;28;20164;-80
2022/08/15 07:22:01;;;;;;;12.18;10.93;;;24.70;99.90;;;;;;5040937;28;20132;-80
2022/08/15 07:24:32;;;;;;;11.57;10.18;;;24.70;99.90;;;;;;5031754;28;20111;-80
2022/08/15 07:27:03;;;;;;;12.30;10.75;;;24.80;99.90;;;;;;5060074;28;20045;-81
2022/08/15 07:29:46;;;;;;;11.20;10.05;;;24.90;99.90;;;;;;5038713;28;20041;-79
2022/08/15 07:32:17;;;;;;;14.20;10.77;;;24.90;99.90;;;;;;5028006;28;20060;-80
2022/08/15 07:35:13;;;;;;;14.93;10.65;;;25.10;99.90;;;;;;5025414;28;20091;-80
2022/08/15 07:37:49;;;;;;;15.68;10.88;;;25.10;99.90;;;;;;5035081;28;20468;-80
2022/08/15 07:40:20;;;;;;;11.77;10.15;;;25.10;99.90;;;;;;5029887;28;20112;-78
2022/08/15 07:42:46;;;;;;;10.82;9.60;;;25.10;99.90;;;;;;5054292;28;20041;-81
2022/08/15 07:45:36;;;;;;;12.88;10.50;;;25.00;99.90;;;;;;5032442;28;20048;-81
2022/08/15 07:48:19;;;;;;;11.70;10.57;;;25.00;99.90;;;;;;5027744;28;20140;-80
2022/08/15 07:51:00;;;;;;;15.07;11.80;;;24.90;99.90;;;;;;5023117;28;20091;-79
2022/08/15 07:53:26;;;;;;;13.18;11.20;;;24.70;99.90;;;;;;5029185;28;20056;-80
2022/08/15 07:56:13;;;;;;;11.88;10.68;;;24.70;99.90;;;;;;5030686;28;20112;-81
2022/08/15 07:58:41;;;;;;;12.50;11.30;;;24.60;99.90;;;;;;5057195;28;20045;-79
2022/08/15 08:01:27;;;;;;;11.60;10.40;;;24.60;99.90;;;;;;5032001;28;20042;-81
2022/08/15 08:04:16;;;;;;;11.30;9.95;;;24.70;99.90;;;;;;5027553;28;20112;-80
2022/08/15 08:06:49;;;;;;;11.88;10.35;;;24.80;99.90;;;;;;5027509;28;20077;-82
2022/08/15 08:09:37;;;;;;;12.63;10.13;;;24.90;99.90;;;;;;5025053;28;20049;-81
2022/08/15 08:12:15;;;;;;;10.07;9.07;;;25.10;99.90;;;;;;5025867;28;20117;-82
2022/08/15 08:15:02;;;;;;;10.35;9.38;;;25.20;99.90;;;;;;5061475;28;20052;-82
2022/08/15 08:17:59;;;;;;;11.25;9.10;;;25.30;99.90;;;;;;5035033;28;20107;-81
2022/08/15 08:20:34;;;;;;;9.85;8.70;;;25.40;99.90;;;;;;5031327;28;20043;-83
2022/08/15 08:23:24;;;;;;;9.63;8.65;;;25.60;99.90;;;;;;5019150;28;20041;-80
2022/08/15 08:25:57;;;;;;;9.75;8.45;;;25.60;99.90;;;;;;5029436;28;20049;-81
2022/08/15 08:28:33;;;;;;;11.00;8.38;;;25.70;99.90;;;;;;5018097;28;20121;-80
2022/08/15 08:31:28;;;;;;;9.05;7.93;;;25.70;99.90;;;;;;5049166;28;20048;-83
2022/08/15 08:34:13;;;;;;;9.43;7.57;;;25.80;99.90;;;;;;5009747;28;20065;-81
2022/08/15 08:36:38;;;;;;;11.27;8.00;;;25.90;99.90;;;;;;5024354;28;20052;-83
2022/08/15 08:39:33;;;;;;;9.27;8.38;;;26.00;99.90;;;;;;5025607;28;20053;-83
2022/08/15 08:42:25;;;;;;;10.32;8.20;;;26.00;99.90;;;;;;5014632;28;20042;-82
2022/08/15 08:45:10;;;;;;;7.88;7.15;;;26.10;99.90;;;;;;5029844;28;20041;-83
2022/08/15 08:48:08;;;;;;;8.23;7.43;;;26.10;99.90;;;;;;5022350;28;20042;-82
2022/08/15 08:50:46;;;;;;;8.15;7.38;;;26.20;99.90;;;;;;5039677;28;20084;-82
2022/08/15 08:53:28;;;;;;;7.95;7.20;;;26.30;99.90;;;;;;5058267;28;20050;-81
2022/08/15 08:56:03;;;;;;;9.38;8.48;;;26.50;99.90;;;;;;5034101;28;20048;-82
2022/08/15 08:58:40;;;;;;;10.77;8.07;;;26.50;99.50;;;;;;5027651;28;20045;-80
2022/08/15 09:01:09;;;;;;;8.90;7.75;;;26.60;99.20;;;;;;5033357;28;20050;-84
2022/08/15 09:03:47;;;;;;;9.70;8.10;;;26.60;98.60;;;;;;5041552;28;20057;-81
2022/08/15 09:06:18;;;;;;;8.65;7.75;;;26.70;98.70;;;;;;5026542;28;20057;-83
2022/08/15 09:08:51;;;;;;;9.32;6.93;;;26.90;98.70;;;;;;5031210;28;20099;-82
2022/08/15 09:11:26;;;;;;;8.40;7.40;;;26.90;98.60;;;;;;5024997;28;20073;-83
2022/08/15 09:13:55;;;;;;;9.38;7.80;;;26.90;98.30;;;;;;5030321;28;20046;-83
2022/08/15 09:16:34;;;;;;;9.40;7.18;;;26.90;98.30;;;;;;5036140;28;20049;-82
2022/08/15 09:19:09;;;;;;;9.52;7.40;;;27.10;98.40;;;;;;5034590;28;20052;-81
2022/08/15 09:21:36;;;;;;;10.35;7.47;;;27.20;98.20;;;;;;5032463;28;20458;-81
2022/08/15 09:24:03;;;;;;;11.18;7.10;;;27.30;98.00;;;;;;5013596;28;20459;-81
2022/08/15 09:26:51;;;;;;;8.63;6.97;;;27.30;97.90;;;;;;5029538;28;20136;-81
2022/08/15 09:29:33;;;;;;;10.32;7.75;;;27.30;97.60;;;;;;5013654;28;20041;-82
2022/08/15 09:32:01;;;;;;;8.98;7.47;;;27.20;97.40;;;;;;5029602;28;20081;-81
2022/08/15 09:34:45;;;;;;;8.30;7.50;;;27.20;97.80;;;;;;5029160;28;20053;-81
2022/08/15 09:37:29;;;;;;;7.78;7.05;;;27.30;97.80;;;;;;5024034;28;20033;-80
2022/08/15 09:40:21;;;;;;;8.13;6.63;;;27.30;97.60;;;;;;5070969;28;20511;-80
2022/08/15 09:43:16;;;;;;;8.77;7.10;;;27.50;97.60;;;;;;5038143;28;20033;-80
2022/08/15 09:46:00;;;;;;;10.55;7.63;;;27.70;97.30;;;;;;5036634;28;20056;-80
2022/08/15 09:48:56;;;;;;;10.93;7.85;;;27.70;97.00;;;;;;5034308;28;20037;-79
2022/08/15 09:51:42;;;;;;;8.30;7.50;;;27.70;96.80;;;;;;5027088;28;20076;-80
2022/08/15 09:54:23;;;;;;;8.48;7.53;;;27.70;95.70;;;;;;5016083;28;20076;-80
2022/08/15 09:57:10;;;;;;;7.38;6.60;;;27.80;96.40;;;;;;5063862;28;20091;-80
2022/08/15 09:59:37;;;;;;;7.63;6.72;;;28.00;96.40;;;;;;5033715;28;20037;-80
2022/08/15 10:02:21;;;;;;;8.05;6.88;;;28.40;96.30;;;;;;5044339;28;20072;-80
2022/08/15 10:04:49;;;;;;;7.70;6.90;;;28.60;96.10;;;;;;5039250;28;20123;-79
2022/08/15 10:07:15;;;;;;;8.07;7.07;;;28.70;95.20;;;;;;5045667;28;20044;-80
2022/08/15 10:10:00;;;;;;;7.20;6.10;;;28.70;94.80;;;;;;5045795;28;20091;-80
2022/08/15 10:12:27;;;;;;;9.73;6.00;;;28.80;94.80;;;;;;5047375;28;20052;-81
2022/08/15 10:14:52;;;;;;;7.50;6.78;;;28.80;94.30;;;;;;5041589;28;20048;-81
2022/08/15 10:17:23;;;;;;;8.18;6.38;;;28.80;94.00;;;;;;5028226;28;20064;-81
2022/08/15 10:19:49;;;;;;;11.02;6.47;;;28.90;93.10;;;;;;5035425;28;20045;-81
2022/08/15 10:22:22;;;;;;;7.60;6.55;;;29.00;93.20;;;;;;5034434;28;20059;-81
2022/08/15 10:25:18;;;;;;;11.30;6.83;;;29.10;93.10;;;;;;5029990;28;20053;-82
2022/08/15 10:28:11;;;;;;;8.55;6.75;;;29.30;93.20;;;;;;5032612;28;20041;-81
2022/08/15 10:30:46;;;;;;;8.50;6.60;;;29.30;93.10;;;;;;5031743;28;20057;-82
2022/08/15 10:33:30;;;;;;;8.68;6.78;;;29.40;93.20;;;;;;5029806;28;20046;-83
2022/08/15 10:36:14;;;;;;;7.38;6.25;;;29.40;91.60;;;;;;5030586;28;20051;-81
2022/08/15 10:38:44;;;;;;;8.63;6.30;;;29.50;91.60;;;;;;5029831;28;20046;-82
2022/08/15 10:41:13;;;;;;;10.05;7.20;;;29.70;91.80;;;;;;5028380;28;20445;-82
2022/08/15 10:44:00;;;;;;;13.25;7.97;;;29.60;91.90;;;;;;5030314;28;20060;-84
2022/08/15 10:46:46;;;;;;;8.93;8.00;;;29.60;91.80;;;;;;5028312;28;20045;-84
2022/08/15 10:49:40;;;;;;;8.63;7.68;;;29.50;92.00;;;;;;5030686;28;20053;-83
2022/08/15 10:52:19;;;;;;;12.88;9.40;;;29.40;92.90;;;;;;5004108;28;20045;-83
2022/08/15 10:55:12;;;;;;;12.02;9.05;;;29.30;92.80;;;;;;5025008;28;20068;-82
2022/08/15 10:57:48;;;;;;;9.82;8.93;;;29.20;93.00;;;;;;5036705;28;20436;-82
2022/08/15 11:00:45;;;;;;;12.52;9.27;;;29.20;93.10;;;;;;5042456;28;20069;-82
2022/08/15 11:03:26;;;;;;;12.65;9.30;;;29.20;93.50;;;;;;5049894;28;20041;-83
2022/08/15 11:06:06;;;;;;;9.93;8.63;;;29.10;93.70;;;;;;5030281;28;20041;-82
2022/08/15 11:08:34;;;;;;;10.73;9.25;;;29.00;94.00;;;;;;5029699;28;20104;-83
2022/08/15 11:11:05;;;;;;;12.32;11.00;;;29.00;94.00;;;;;;5029558;28;20499;-83
2022/08/15 11:13:31;;;;;;;10.80;9.70;;;28.70;93.60;;;;;;5030436;28;20049;-83
2022/08/15 11:16:14;;;;;;;12.57;10.05;;;28.70;93.50;;;;;;5030710;28;20132;-84
2022/08/15 11:18:53;;;;;;;11.40;9.33;;;28.40;93.50;;;;;;5029533;28;20041;-83
2022/08/15 11:21:32;;;;;;;10.77;9.15;;;28.20;94.00;;;;;;5030059;28;20037;-81
2022/08/15 11:24:06;;;;;;;9.32;8.43;;;28.00;94.20;;;;;;5029735;28;20045;-83
2022/08/15 11:26:35;;;;;;;10.98;9.48;;;27.90;94.50;;;;;;5030207;28;20128;-82
2022/08/15 11:29:15;;;;;;;11.90;9.82;;;27.70;94.70;;;;;;5028336;28;20048;-82
2022/08/15 11:31:58;;;;;;;10.02;8.95;;;27.50;94.80;;;;;;5035819;28;20095;-83
2022/08/15 11:34:31;;;;;;;10.00;9.00;;;27.30;95.30;;;;;;5035313;28;20080;-81
2022/08/15 11:37:04;;;;;;;10.43;9.23;;;27.20;95.50;;;;;;5033620;28;20275;-81
2022/08/15 11:39:31;;;;;;;10.13;9.07;;;27.00;95.90;;;;;;5028593;28;20116;-82
2022/08/15 11:42:03;;;;;;;10.85;8.85;;;26.90;96.20;;;;;;5030354;28;20041;-82
2022/08/15 11:44:52;;;;;;;14.23;9.50;;;26.80;96.50;;;;;;5031308;28;20112;-83
2022/08/15 11:47:18;;;;;;;11.65;9.77;;;26.60;97.70;;;;;;5033965;28;20045;-82
2022/08/15 11:49:50;;;;;;;10.20;9.20;;;26.50;97.70;;;;;;5030773;28;20127;-83
2022/08/15 11:52:26;;;;;;;10.90;9.90;;;26.30;98.10;;;;;;5036829;28;20582;-84
2022/08/15 11:55:27;;;;;;;11.80;10.30;;;26.20;98.70;;;;;;5055841;28;20037;-85
2022/08/15 11:58:00;;;;;;;10.90;9.30;;;25.90;99.10;;;;;;4980783;28;20042;-84
2022/08/15 12:00:38;;;;;;;13.02;10.38;;;25.70;99.50;;;;;;5007570;28;20883;-83
2022/08/15 12:03:18;;;;;;;11.77;10.32;;;25.60;99.90;;;;;;5032611;28;20589;-83
2022/08/15 12:05:45;;;;;;;11.48;10.38;;;25.30;99.90;;;;;;5037734;28;20125;-83
2022/08/15 12:08:10;;;;;;;11.93;10.73;;;25.00;99.90;;;;;;5042995;28;20110;-82
2022/08/15 12:10:43;;;;;;;12.80;9.98;;;24.90;99.90;;;;;;5038003;28;20460;-85
2022/08/15 12:13:16;;;;;;;13.27;10.93;;;25.00;99.90;;;;;;5040880;28;20052;-84
2022/08/15 12:15:43;;;;;;;10.13;9.17;;;25.10;99.90;;;;;;5036383;28;20029;-85
2022/08/15 12:18:20;;;;;;;10.65;9.55;;;25.30;99.90;;;;;;5041391;28;21819;-85
2022/08/15 12:20:59;;;;;;;10.65;9.60;;;25.40;99.90;;;;;;5032495;28;20044;-85
2022/08/15 12:23:35;;;;;;;10.48;9.23;;;25.60;99.90;;;;;;5028041;28;20129;-85
2022/08/15 12:26:10;;;;;;;10.45;9.00;;;25.60;99.90;;;;;;5030627;28;20187;-84
2022/08/15 12:28:38;;;;;;;11.35;9.23;;;25.60;99.90;;;;;;5028506;28;20393;-85
2022/08/15 12:31:28;;;;;;;10.88;9.77;;;25.60;99.90;;;;;;5029608;28;20700;-84
2022/08/15 12:34:11;;;;;;;10.63;9.63;;;25.60;99.90;;;;;;5033475;28;20029;-84
2022/08/15 12:36:39;;;;;;;;;;;25.50;99.90;;;;;;5023830;28;20099;-85
2022/08/15 12:39:04;;;;;;;7.47;6.72;;;25.50;99.90;;;;;;5037602;28;19927;-83
2022/08/15 12:41:31;;;;;;;9.50;6.70;;;25.40;99.90;;;;;;5039790;28;20038;-84
2022/08/15 12:43:57;;;;;;;7.20;6.50;;;25.50;99.90;;;;;;5048726;28;20034;-84
2022/08/15 12:46:23;;;;;;;9.57;6.95;;;25.50;99.90;;;;;;5016535;28;20041;-84
2022/08/15 12:48:50;;;;;;;8.32;7.35;;;25.60;99.90;;;;;;5033576;28;20418;-83
2022/08/15 12:51:17;;;;;;;9.57;7.57;;;25.80;99.90;;;;;;5016334;28;20068;-84
2022/08/15 12:53:43;;;;;;;10.10;8.45;;;26.10;99.90;;;;;;5032111;28;20041;-83
2022/08/15 12:56:09;;;;;;;9.20;8.30;;;26.20;99.90;;;;;;5016540;28;20038;-84
2022/08/15 12:58:36;;;;;;;10.35;7.38;;;26.60;99.90;;;;;;5016118;28;20041;-84
2022/08/15 13:01:07;;;;;;;10.10;7.93;;;26.70;99.90;;;;;;5032134;28;20033;-84
2022/08/15 13:03:34;;;;;;;8.75;7.55;;;26.90;99.90;;;;;;5016671;28;20073;-84
2022/08/15 13:06:11;;;;;;;8.32;7.55;;;27.00;99.90;;;;;;5016414;28;20037;-84
2022/08/15 13:08:37;;;;;;;7.63;6.63;;;27.00;99.90;;;;;;5031932;28;20056;-84
2022/08/15 13:11:03;;;;;;;6.95;6.35;;;27.20;99.90;;;;;;5032128;28;20446;-84